sensor_id;sensor_type;location;lat;lon;timestamp;P1;durP1;ratioP1;P2;durP2;ratioP2
42364;SDS011;28498;54.400;18.566;2024-02-26T00:01:51;4.30;;;2.40;;
42364;SDS011;28498;54.400;18.566;2024-02-26T00:04:18;4.65;;;2.15;;
42364;SDS011;28498;54.400;18.566;2024-02-26T00:06:46;4.47;;;2.30;;
42364;SDS011;28498;54.400;18.566;2024-02-26T00:09:14;5.78;;;2.50;;
42364;SDS011;28498;54.400;18.566;2024-02-26T00:11:41;5.65;;;2.60;;
42364;SDS011;28498;54.400;18.566;2024-02-26T00:14:08;3.47;;;2.22;;
42364;SDS011;28498;54.400;18.566;2024-02-26T00:16:35;5.15;;;2.22;;
42364;SDS011;28498;54.400;18.566;2024-02-26T00:19:02;3.88;;;2.10;;
42364;SDS011;28498;54.400;18.566;2024-02-26T00:21:29;4.30;;;2.58;;
42364;SDS011;28498;54.400;18.566;2024-02-26T00:23:56;5.93;;;2.35;;
42364;SDS011;28498;54.400;18.566;2024-02-26T00:26:24;6.05;;;2.72;;
42364;SDS011;28498;54.400;18.566;2024-02-26T00:28:51;7.82;;;3.15;;
42364;SDS011;28498;54.400;18.566;2024-02-26T00:31:18;8.02;;;2.70;;
42364;SDS011;28498;54.400;18.566;2024-02-26T00:33:45;7.97;;;3.28;;
42364;SDS011;28498;54.400;18.566;2024-02-26T00:36:12;4.85;;;2.58;;
42364;SDS011;28498;54.400;18.566;2024-02-26T00:38:39;8.05;;;2.60;;
42364;SDS011;28498;54.400;18.566;2024-02-26T00:41:07;4.13;;;2.65;;
42364;SDS011;28498;54.400;18.566;2024-02-26T00:43:34;5.47;;;2.85;;
42364;SDS011;28498;54.400;18.566;2024-02-26T00:46:01;5.18;;;3.38;;
42364;SDS011;28498;54.400;18.566;2024-02-26T00:48:28;5.75;;;2.70;;
42364;SDS011;28498;54.400;18.566;2024-02-26T00:50:55;6.95;;;3.38;;
42364;SDS011;28498;54.400;18.566;2024-02-26T00:53:23;5.97;;;2.70;;
42364;SDS011;28498;54.400;18.566;2024-02-26T00:55:51;7.22;;;3.25;;
42364;SDS011;28498;54.400;18.566;2024-02-26T00:58:18;5.93;;;3.03;;
42364;SDS011;28498;54.400;18.566;2024-02-26T01:00:45;6.32;;;2.70;;
42364;SDS011;28498;54.400;18.566;2024-02-26T01:03:12;6.20;;;3.70;;
42364;SDS011;28498;54.400;18.566;2024-02-26T01:05:40;4.65;;;2.90;;
42364;SDS011;28498;54.400;18.566;2024-02-26T01:08:07;6.53;;;2.95;;
42364;SDS011;28498;54.400;18.566;2024-02-26T01:10:34;4.97;;;2.55;;
42364;SDS011;28498;54.400;18.566;2024-02-26T01:13:02;6.97;;;2.30;;
42364;SDS011;28498;54.400;18.566;2024-02-26T01:15:29;4.85;;;2.78;;
42364;SDS011;28498;54.400;18.566;2024-02-26T01:17:56;6.03;;;3.00;;
42364;SDS011;28498;54.400;18.566;2024-02-26T01:20:24;5.97;;;2.72;;
42364;SDS011;28498;54.400;18.566;2024-02-26T01:22:51;4.50;;;2.58;;
42364;SDS011;28498;54.400;18.566;2024-02-26T01:25:18;5.38;;;2.70;;
42364;SDS011;28498;54.400;18.566;2024-02-26T01:27:45;7.30;;;3.30;;
42364;SDS011;28498;54.400;18.566;2024-02-26T01:30:12;9.02;;;3.40;;
42364;SDS011;28498;54.400;18.566;2024-02-26T01:32:42;7.20;;;3.55;;
42364;SDS011;28498;54.400;18.566;2024-02-26T01:35:09;11.00;;;3.80;;
42364;SDS011;28498;54.400;18.566;2024-02-26T01:37:38;5.70;;;3.00;;
42364;SDS011;28498;54.400;18.566;2024-02-26T01:40:05;9.30;;;3.63;;
42364;SDS011;28498;54.400;18.566;2024-02-26T01:42:38;8.05;;;4.07;;
42364;SDS011;28498;54.400;18.566;2024-02-26T01:45:05;8.82;;;3.70;;
42364;SDS011;28498;54.400;18.566;2024-02-26T01:47:33;6.97;;;3.75;;
42364;SDS011;28498;54.400;18.566;2024-02-26T01:50:01;10.52;;;3.65;;
42364;SDS011;28498;54.400;18.566;2024-02-26T01:52:28;8.15;;;3.95;;
42364;SDS011;28498;54.400;18.566;2024-02-26T01:54:55;7.47;;;3.70;;
42364;SDS011;28498;54.400;18.566;2024-02-26T01:57:22;8.38;;;4.15;;
42364;SDS011;28498;54.400;18.566;2024-02-26T01:59:50;8.85;;;3.95;;
42364;SDS011;28498;54.400;18.566;2024-02-26T02:02:17;7.72;;;3.80;;
42364;SDS011;28498;54.400;18.566;2024-02-26T02:04:44;6.20;;;3.90;;
42364;SDS011;28498;54.400;18.566;2024-02-26T02:07:11;8.88;;;3.88;;
42364;SDS011;28498;54.400;18.566;2024-02-26T02:09:39;9.40;;;4.10;;
42364;SDS011;28498;54.400;18.566;2024-02-26T02:12:07;12.65;;;4.47;;
42364;SDS011;28498;54.400;18.566;2024-02-26T02:14:34;8.80;;;4.30;;
42364;SDS011;28498;54.400;18.566;2024-02-26T02:17:01;7.75;;;4.10;;
42364;SDS011;28498;54.400;18.566;2024-02-26T02:19:28;8.50;;;4.65;;
42364;SDS011;28498;54.400;18.566;2024-02-26T02:21:55;8.80;;;4.07;;
42364;SDS011;28498;54.400;18.566;2024-02-26T02:24:23;9.50;;;4.35;;
42364;SDS011;28498;54.400;18.566;2024-02-26T02:26:50;9.90;;;5.35;;
42364;SDS011;28498;54.400;18.566;2024-02-26T02:29:17;10.10;;;5.05;;
42364;SDS011;28498;54.400;18.566;2024-02-26T02:31:44;8.68;;;4.30;;
42364;SDS011;28498;54.400;18.566;2024-02-26T02:34:11;8.40;;;4.47;;
42364;SDS011;28498;54.400;18.566;2024-02-26T02:36:49;9.93;;;4.55;;
42364;SDS011;28498;54.400;18.566;2024-02-26T02:39:20;7.93;;;4.18;;
42364;SDS011;28498;54.400;18.566;2024-02-26T02:41:47;8.43;;;4.60;;
42364;SDS011;28498;54.400;18.566;2024-02-26T02:44:14;8.52;;;5.20;;
42364;SDS011;28498;54.400;18.566;2024-02-26T02:46:41;10.75;;;4.55;;
42364;SDS011;28498;54.400;18.566;2024-02-26T02:49:09;9.25;;;4.60;;
42364;SDS011;28498;54.400;18.566;2024-02-26T02:51:37;11.70;;;4.88;;
42364;SDS011;28498;54.400;18.566;2024-02-26T02:54:04;11.55;;;5.50;;
42364;SDS011;28498;54.400;18.566;2024-02-26T02:56:31;9.50;;;4.97;;
42364;SDS011;28498;54.400;18.566;2024-02-26T02:58:58;11.00;;;5.95;;
42364;SDS011;28498;54.400;18.566;2024-02-26T03:01:25;9.75;;;4.93;;
42364;SDS011;28498;54.400;18.566;2024-02-26T03:03:52;13.27;;;5.72;;
42364;SDS011;28498;54.400;18.566;2024-02-26T03:06:20;13.65;;;5.43;;
42364;SDS011;28498;54.400;18.566;2024-02-26T03:08:47;10.52;;;5.50;;
42364;SDS011;28498;54.400;18.566;2024-02-26T03:11:14;10.48;;;5.57;;
42364;SDS011;28498;54.400;18.566;2024-02-26T03:13:42;10.68;;;5.10;;
42364;SDS011;28498;54.400;18.566;2024-02-26T03:16:09;10.32;;;5.38;;
42364;SDS011;28498;54.400;18.566;2024-02-26T03:18:38;11.52;;;5.80;;
42364;SDS011;28498;54.400;18.566;2024-02-26T03:21:06;10.98;;;5.43;;
42364;SDS011;28498;54.400;18.566;2024-02-26T03:23:33;11.88;;;5.65;;
42364;SDS011;28498;54.400;18.566;2024-02-26T03:26:03;10.95;;;5.18;;
42364;SDS011;28498;54.400;18.566;2024-02-26T03:28:31;9.95;;;5.35;;
42364;SDS011;28498;54.400;18.566;2024-02-26T03:31:00;14.40;;;6.32;;
42364;SDS011;28498;54.400;18.566;2024-02-26T03:33:28;12.32;;;5.80;;
42364;SDS011;28498;54.400;18.566;2024-02-26T03:35:56;15.00;;;6.65;;
42364;SDS011;28498;54.400;18.566;2024-02-26T03:38:23;10.68;;;5.88;;
42364;SDS011;28498;54.400;18.566;2024-02-26T03:40:50;11.02;;;5.65;;
42364;SDS011;28498;54.400;18.566;2024-02-26T03:43:17;16.15;;;6.30;;
42364;SDS011;28498;54.400;18.566;2024-02-26T03:45:44;12.98;;;6.18;;
42364;SDS011;28498;54.400;18.566;2024-02-26T03:48:11;11.57;;;5.90;;
42364;SDS011;28498;54.400;18.566;2024-02-26T03:50:38;12.82;;;5.82;;
42364;SDS011;28498;54.400;18.566;2024-02-26T03:53:05;13.35;;;6.63;;
42364;SDS011;28498;54.400;18.566;2024-02-26T03:55:39;11.70;;;6.40;;
42364;SDS011;28498;54.400;18.566;2024-02-26T03:58:08;11.70;;;6.10;;
42364;SDS011;28498;54.400;18.566;2024-02-26T04:00:36;13.02;;;6.57;;
42364;SDS011;28498;54.400;18.566;2024-02-26T04:03:03;13.77;;;6.70;;
42364;SDS011;28498;54.400;18.566;2024-02-26T04:05:31;16.38;;;7.53;;
42364;SDS011;28498;54.400;18.566;2024-02-26T04:07:58;19.40;;;7.97;;
42364;SDS011;28498;54.400;18.566;2024-02-26T04:10:25;11.50;;;6.03;;
42364;SDS011;28498;54.400;18.566;2024-02-26T04:12:52;15.75;;;6.85;;
42364;SDS011;28498;54.400;18.566;2024-02-26T04:15:19;14.35;;;6.80;;
42364;SDS011;28498;54.400;18.566;2024-02-26T04:17:46;14.88;;;7.85;;
42364;SDS011;28498;54.400;18.566;2024-02-26T04:20:14;18.58;;;7.90;;
42364;SDS011;28498;54.400;18.566;2024-02-26T04:22:42;16.65;;;6.70;;
42364;SDS011;28498;54.400;18.566;2024-02-26T04:25:09;14.13;;;7.53;;
42364;SDS011;28498;54.400;18.566;2024-02-26T04:27:37;15.10;;;7.85;;
42364;SDS011;28498;54.400;18.566;2024-02-26T04:30:05;17.75;;;7.75;;
42364;SDS011;28498;54.400;18.566;2024-02-26T04:32:33;17.55;;;7.88;;
42364;SDS011;28498;54.400;18.566;2024-02-26T04:35:01;14.40;;;7.95;;
42364;SDS011;28498;54.400;18.566;2024-02-26T04:37:29;19.83;;;8.45;;
42364;SDS011;28498;54.400;18.566;2024-02-26T04:40:01;20.13;;;8.45;;
42364;SDS011;28498;54.400;18.566;2024-02-26T04:42:28;20.10;;;9.93;;
42364;SDS011;28498;54.400;18.566;2024-02-26T04:44:55;18.70;;;9.85;;
42364;SDS011;28498;54.400;18.566;2024-02-26T04:47:22;15.60;;;8.75;;
42364;SDS011;28498;54.400;18.566;2024-02-26T04:49:49;20.60;;;9.02;;
42364;SDS011;28498;54.400;18.566;2024-02-26T04:52:18;21.02;;;9.50;;
42364;SDS011;28498;54.400;18.566;2024-02-26T04:54:45;17.85;;;8.70;;
42364;SDS011;28498;54.400;18.566;2024-02-26T04:57:12;17.73;;;9.07;;
42364;SDS011;28498;54.400;18.566;2024-02-26T04:59:39;16.65;;;8.40;;
42364;SDS011;28498;54.400;18.566;2024-02-26T05:02:09;17.17;;;8.18;;
42364;SDS011;28498;54.400;18.566;2024-02-26T05:04:36;18.00;;;10.02;;
42364;SDS011;28498;54.400;18.566;2024-02-26T05:07:03;24.15;;;9.95;;
42364;SDS011;28498;54.400;18.566;2024-02-26T05:09:31;15.95;;;8.57;;
42364;SDS011;28498;54.400;18.566;2024-02-26T05:11:58;17.80;;;9.25;;
42364;SDS011;28498;54.400;18.566;2024-02-26T05:14:25;18.15;;;9.07;;
42364;SDS011;28498;54.400;18.566;2024-02-26T05:16:52;20.80;;;9.10;;
42364;SDS011;28498;54.400;18.566;2024-02-26T05:19:19;21.15;;;10.20;;
42364;SDS011;28498;54.400;18.566;2024-02-26T05:21:46;24.92;;;10.38;;
42364;SDS011;28498;54.400;18.566;2024-02-26T05:24:15;22.00;;;10.82;;
42364;SDS011;28498;54.400;18.566;2024-02-26T05:26:45;20.55;;;10.63;;
42364;SDS011;28498;54.400;18.566;2024-02-26T05:29:12;18.45;;;10.07;;
42364;SDS011;28498;54.400;18.566;2024-02-26T05:31:41;19.48;;;10.13;;
42364;SDS011;28498;54.400;18.566;2024-02-26T05:34:09;24.85;;;11.30;;
42364;SDS011;28498;54.400;18.566;2024-02-26T05:36:36;19.92;;;10.05;;
42364;SDS011;28498;54.400;18.566;2024-02-26T05:42:44;26.38;;;11.38;;
42364;SDS011;28498;54.400;18.566;2024-02-26T05:45:11;24.17;;;10.27;;
42364;SDS011;28498;54.400;18.566;2024-02-26T05:47:38;23.52;;;10.93;;
42364;SDS011;28498;54.400;18.566;2024-02-26T05:50:09;18.60;;;10.05;;
42364;SDS011;28498;54.400;18.566;2024-02-26T05:52:37;28.08;;;10.02;;
42364;SDS011;28498;54.400;18.566;2024-02-26T05:55:05;20.58;;;11.15;;
42364;SDS011;28498;54.400;18.566;2024-02-26T05:57:33;23.50;;;11.52;;
42364;SDS011;28498;54.400;18.566;2024-02-26T06:00:01;27.63;;;13.15;;
42364;SDS011;28498;54.400;18.566;2024-02-26T06:02:30;27.23;;;12.75;;
42364;SDS011;28498;54.400;18.566;2024-02-26T06:04:57;25.80;;;11.98;;
42364;SDS011;28498;54.400;18.566;2024-02-26T06:07:25;22.77;;;11.90;;
42364;SDS011;28498;54.400;18.566;2024-02-26T06:09:52;26.95;;;13.13;;
42364;SDS011;28498;54.400;18.566;2024-02-26T06:12:19;25.77;;;11.88;;
42364;SDS011;28498;54.400;18.566;2024-02-26T06:14:46;26.35;;;12.30;;
42364;SDS011;28498;54.400;18.566;2024-02-26T06:17:13;21.92;;;12.02;;
42364;SDS011;28498;54.400;18.566;2024-02-26T06:19:40;27.60;;;13.82;;
42364;SDS011;28498;54.400;18.566;2024-02-26T06:22:07;28.25;;;12.55;;
42364;SDS011;28498;54.400;18.566;2024-02-26T06:24:34;30.02;;;13.75;;
42364;SDS011;28498;54.400;18.566;2024-02-26T06:27:01;25.92;;;12.60;;
42364;SDS011;28498;54.400;18.566;2024-02-26T06:29:29;32.20;;;15.35;;
42364;SDS011;28498;54.400;18.566;2024-02-26T06:31:56;26.50;;;13.73;;
42364;SDS011;28498;54.400;18.566;2024-02-26T06:34:23;31.20;;;14.40;;
42364;SDS011;28498;54.400;18.566;2024-02-26T06:36:50;25.35;;;13.00;;
42364;SDS011;28498;54.400;18.566;2024-02-26T06:39:17;32.25;;;15.35;;
42364;SDS011;28498;54.400;18.566;2024-02-26T06:41:45;28.95;;;13.52;;
42364;SDS011;28498;54.400;18.566;2024-02-26T06:44:13;31.95;;;14.82;;
42364;SDS011;28498;54.400;18.566;2024-02-26T06:46:41;27.13;;;14.35;;
42364;SDS011;28498;54.400;18.566;2024-02-26T06:49:08;37.53;;;15.88;;
42364;SDS011;28498;54.400;18.566;2024-02-26T06:51:35;37.28;;;17.38;;
42364;SDS011;28498;54.400;18.566;2024-02-26T06:54:02;38.67;;;16.83;;
42364;SDS011;28498;54.400;18.566;2024-02-26T06:56:29;44.28;;;18.20;;
42364;SDS011;28498;54.400;18.566;2024-02-26T06:58:56;42.30;;;18.85;;
42364;SDS011;28498;54.400;18.566;2024-02-26T07:01:23;51.72;;;20.60;;
42364;SDS011;28498;54.400;18.566;2024-02-26T07:03:51;37.72;;;18.17;;
42364;SDS011;28498;54.400;18.566;2024-02-26T07:06:21;38.88;;;18.63;;
42364;SDS011;28498;54.400;18.566;2024-02-26T07:08:48;45.03;;;18.80;;
42364;SDS011;28498;54.400;18.566;2024-02-26T07:11:15;43.13;;;20.05;;
42364;SDS011;28498;54.400;18.566;2024-02-26T07:13:42;50.80;;;20.98;;
42364;SDS011;28498;54.400;18.566;2024-02-26T07:16:09;55.75;;;24.63;;
42364;SDS011;28498;54.400;18.566;2024-02-26T07:18:37;61.60;;;27.90;;
42364;SDS011;28498;54.400;18.566;2024-02-26T07:21:07;53.22;;;24.90;;
42364;SDS011;28498;54.400;18.566;2024-02-26T07:23:34;61.47;;;26.02;;
42364;SDS011;28498;54.400;18.566;2024-02-26T07:26:01;57.65;;;25.27;;
42364;SDS011;28498;54.400;18.566;2024-02-26T07:28:28;55.85;;;24.42;;
42364;SDS011;28498;54.400;18.566;2024-02-26T07:30:55;53.58;;;25.27;;
42364;SDS011;28498;54.400;18.566;2024-02-26T07:33:23;59.45;;;29.58;;
42364;SDS011;28498;54.400;18.566;2024-02-26T07:35:50;60.15;;;27.60;;
42364;SDS011;28498;54.400;18.566;2024-02-26T07:38:17;60.17;;;29.33;;
42364;SDS011;28498;54.400;18.566;2024-02-26T07:40:57;58.78;;;28.75;;
42364;SDS011;28498;54.400;18.566;2024-02-26T07:43:29;56.85;;;28.95;;
42364;SDS011;28498;54.400;18.566;2024-02-26T07:45:56;60.35;;;27.75;;
42364;SDS011;28498;54.400;18.566;2024-02-26T07:48:24;64.03;;;29.42;;
42364;SDS011;28498;54.400;18.566;2024-02-26T07:50:51;56.10;;;28.60;;
42364;SDS011;28498;54.400;18.566;2024-02-26T07:53:18;59.63;;;29.30;;
42364;SDS011;28498;54.400;18.566;2024-02-26T07:55:45;63.75;;;30.85;;
42364;SDS011;28498;54.400;18.566;2024-02-26T07:58:13;58.08;;;27.83;;
42364;SDS011;28498;54.400;18.566;2024-02-26T08:00:40;54.03;;;26.83;;
42364;SDS011;28498;54.400;18.566;2024-02-26T08:03:07;57.83;;;26.58;;
42364;SDS011;28498;54.400;18.566;2024-02-26T08:05:35;55.70;;;27.65;;
42364;SDS011;28498;54.400;18.566;2024-02-26T08:08:02;49.80;;;26.02;;
42364;SDS011;28498;54.400;18.566;2024-02-26T08:10:29;56.42;;;25.88;;
42364;SDS011;28498;54.400;18.566;2024-02-26T08:12:58;54.50;;;29.70;;
42364;SDS011;28498;54.400;18.566;2024-02-26T08:15:32;51.72;;;26.17;;
42364;SDS011;28498;54.400;18.566;2024-02-26T08:18:02;46.67;;;23.05;;
42364;SDS011;28498;54.400;18.566;2024-02-26T08:20:30;45.60;;;23.00;;
42364;SDS011;28498;54.400;18.566;2024-02-26T08:22:58;47.78;;;22.77;;
42364;SDS011;28498;54.400;18.566;2024-02-26T08:25:25;48.47;;;23.13;;
42364;SDS011;28498;54.400;18.566;2024-02-26T08:27:52;48.63;;;23.23;;
42364;SDS011;28498;54.400;18.566;2024-02-26T08:30:19;42.28;;;21.98;;
42364;SDS011;28498;54.400;18.566;2024-02-26T08:32:47;41.97;;;22.05;;
42364;SDS011;28498;54.400;18.566;2024-02-26T08:35:17;42.42;;;22.92;;
42364;SDS011;28498;54.400;18.566;2024-02-26T08:37:46;41.85;;;22.40;;
42364;SDS011;28498;54.400;18.566;2024-02-26T08:40:13;39.22;;;19.92;;
42364;SDS011;28498;54.400;18.566;2024-02-26T08:42:41;38.80;;;20.30;;
42364;SDS011;28498;54.400;18.566;2024-02-26T08:45:08;32.60;;;17.00;;
42364;SDS011;28498;54.400;18.566;2024-02-26T08:47:36;38.38;;;18.33;;
42364;SDS011;28498;54.400;18.566;2024-02-26T08:50:04;37.15;;;17.88;;
42364;SDS011;28498;54.400;18.566;2024-02-26T08:52:31;37.42;;;17.83;;
42364;SDS011;28498;54.400;18.566;2024-02-26T08:54:59;35.25;;;17.85;;
42364;SDS011;28498;54.400;18.566;2024-02-26T08:57:26;29.85;;;15.40;;
42364;SDS011;28498;54.400;18.566;2024-02-26T08:59:54;29.63;;;14.95;;
42364;SDS011;28498;54.400;18.566;2024-02-26T09:02:21;28.90;;;14.95;;
42364;SDS011;28498;54.400;18.566;2024-02-26T09:04:48;28.08;;;15.77;;
42364;SDS011;28498;54.400;18.566;2024-02-26T09:07:17;23.73;;;12.27;;
42364;SDS011;28498;54.400;18.566;2024-02-26T09:09:45;29.85;;;14.02;;
42364;SDS011;28498;54.400;18.566;2024-02-26T09:12:12;21.75;;;12.05;;
42364;SDS011;28498;54.400;18.566;2024-02-26T09:14:39;24.15;;;13.95;;
42364;SDS011;28498;54.400;18.566;2024-02-26T09:17:06;25.58;;;13.43;;
42364;SDS011;28498;54.400;18.566;2024-02-26T09:19:34;23.35;;;13.85;;
42364;SDS011;28498;54.400;18.566;2024-02-26T09:22:01;26.05;;;13.93;;
42364;SDS011;28498;54.400;18.566;2024-02-26T09:24:29;25.60;;;14.93;;
42364;SDS011;28498;54.400;18.566;2024-02-26T09:26:56;32.55;;;13.88;;
42364;SDS011;28498;54.400;18.566;2024-02-26T09:29:23;26.05;;;13.27;;
42364;SDS011;28498;54.400;18.566;2024-02-26T09:31:50;25.08;;;13.38;;
42364;SDS011;28498;54.400;18.566;2024-02-26T09:34:17;22.85;;;12.63;;
42364;SDS011;28498;54.400;18.566;2024-02-26T09:36:45;23.70;;;13.75;;
42364;SDS011;28498;54.400;18.566;2024-02-26T09:39:12;24.60;;;13.55;;
42364;SDS011;28498;54.400;18.566;2024-02-26T09:41:42;26.20;;;14.15;;
42364;SDS011;28498;54.400;18.566;2024-02-26T09:44:11;26.23;;;14.10;;
42364;SDS011;28498;54.400;18.566;2024-02-26T09:46:41;25.08;;;12.95;;
42364;SDS011;28498;54.400;18.566;2024-02-26T09:49:08;28.80;;;15.70;;
42364;SDS011;28498;54.400;18.566;2024-02-26T09:51:36;29.38;;;16.50;;
42364;SDS011;28498;54.400;18.566;2024-02-26T09:54:04;27.85;;;15.20;;
42364;SDS011;28498;54.400;18.566;2024-02-26T09:56:37;30.05;;;15.63;;
42364;SDS011;28498;54.400;18.566;2024-02-26T09:59:21;30.52;;;17.02;;
42364;SDS011;28498;54.400;18.566;2024-02-26T10:01:49;31.55;;;17.23;;
42364;SDS011;28498;54.400;18.566;2024-02-26T10:04:17;31.33;;;16.63;;
42364;SDS011;28498;54.400;18.566;2024-02-26T10:06:45;30.02;;;18.58;;
42364;SDS011;28498;54.400;18.566;2024-02-26T10:09:13;38.03;;;19.92;;
42364;SDS011;28498;54.400;18.566;2024-02-26T10:11:42;44.15;;;21.00;;
42364;SDS011;28498;54.400;18.566;2024-02-26T10:14:10;37.97;;;20.52;;
42364;SDS011;28498;54.400;18.566;2024-02-26T10:16:38;34.78;;;19.10;;
42364;SDS011;28498;54.400;18.566;2024-02-26T10:19:06;33.42;;;19.23;;
42364;SDS011;28498;54.400;18.566;2024-02-26T10:21:33;37.13;;;20.15;;
42364;SDS011;28498;54.400;18.566;2024-02-26T10:24:00;33.03;;;18.75;;
42364;SDS011;28498;54.400;18.566;2024-02-26T10:26:27;38.33;;;18.88;;
42364;SDS011;28498;54.400;18.566;2024-02-26T10:28:54;38.67;;;20.13;;
42364;SDS011;28498;54.400;18.566;2024-02-26T10:31:26;38.22;;;19.35;;
42364;SDS011;28498;54.400;18.566;2024-02-26T10:33:55;38.63;;;20.73;;
42364;SDS011;28498;54.400;18.566;2024-02-26T10:36:25;42.78;;;22.63;;
42364;SDS011;28498;54.400;18.566;2024-02-26T10:39:09;40.70;;;21.92;;
42364;SDS011;28498;54.400;18.566;2024-02-26T10:41:43;41.45;;;20.42;;
42364;SDS011;28498;54.400;18.566;2024-02-26T10:44:11;36.70;;;20.85;;
42364;SDS011;28498;54.400;18.566;2024-02-26T10:46:44;36.90;;;21.53;;
42364;SDS011;28498;54.400;18.566;2024-02-26T10:49:16;36.70;;;19.67;;
42364;SDS011;28498;54.400;18.566;2024-02-26T10:51:49;34.08;;;18.90;;
42364;SDS011;28498;54.400;18.566;2024-02-26T10:54:23;31.83;;;19.38;;
42364;SDS011;28498;54.400;18.566;2024-02-26T10:56:55;31.85;;;17.85;;
42364;SDS011;28498;54.400;18.566;2024-02-26T10:59:24;37.35;;;18.38;;
42364;SDS011;28498;54.400;18.566;2024-02-26T11:01:51;32.65;;;17.88;;
42364;SDS011;28498;54.400;18.566;2024-02-26T11:04:19;31.13;;;17.30;;
42364;SDS011;28498;54.400;18.566;2024-02-26T11:06:48;35.47;;;17.67;;
42364;SDS011;28498;54.400;18.566;2024-02-26T11:09:16;31.85;;;18.13;;
42364;SDS011;28498;54.400;18.566;2024-02-26T11:11:46;35.60;;;18.63;;
42364;SDS011;28498;54.400;18.566;2024-02-26T11:14:14;33.97;;;19.92;;
42364;SDS011;28498;54.400;18.566;2024-02-26T11:16:43;30.58;;;17.65;;
42364;SDS011;28498;54.400;18.566;2024-02-26T11:19:11;30.52;;;15.35;;
42364;SDS011;28498;54.400;18.566;2024-02-26T11:21:40;27.30;;;15.32;;
42364;SDS011;28498;54.400;18.566;2024-02-26T11:24:10;28.08;;;13.82;;
42364;SDS011;28498;54.400;18.566;2024-02-26T11:26:48;23.30;;;14.43;;
42364;SDS011;28498;54.400;18.566;2024-02-26T11:29:33;22.92;;;13.30;;
42364;SDS011;28498;54.400;18.566;2024-02-26T11:32:05;20.40;;;13.20;;
42364;SDS011;28498;54.400;18.566;2024-02-26T11:34:33;29.65;;;15.45;;
42364;SDS011;28498;54.400;18.566;2024-02-26T11:37:13;32.13;;;15.25;;
42364;SDS011;28498;54.400;18.566;2024-02-26T11:39:41;27.63;;;15.38;;
42364;SDS011;28498;54.400;18.566;2024-02-26T11:42:09;29.33;;;15.93;;
42364;SDS011;28498;54.400;18.566;2024-02-26T11:44:37;31.25;;;14.32;;
42364;SDS011;28498;54.400;18.566;2024-02-26T11:47:14;24.45;;;13.65;;
42364;SDS011;28498;54.400;18.566;2024-02-26T11:49:45;25.15;;;13.60;;
42364;SDS011;28498;54.400;18.566;2024-02-26T11:52:13;26.42;;;14.02;;
42364;SDS011;28498;54.400;18.566;2024-02-26T11:54:45;23.33;;;14.18;;
42364;SDS011;28498;54.400;18.566;2024-02-26T12:00:10;20.50;;;12.57;;
42364;SDS011;28498;54.400;18.566;2024-02-26T12:05:18;20.88;;;12.55;;
42364;SDS011;28498;54.400;18.566;2024-02-26T12:07:54;23.52;;;13.95;;
42364;SDS011;28498;54.400;18.566;2024-02-26T12:13:10;19.98;;;13.00;;
42364;SDS011;28498;54.400;18.566;2024-02-26T12:18:18;21.02;;;12.15;;
42364;SDS011;28498;54.400;18.566;2024-02-26T12:20:47;23.08;;;13.25;;
42364;SDS011;28498;54.400;18.566;2024-02-26T12:23:27;24.63;;;14.10;;
42364;SDS011;28498;54.400;18.566;2024-02-26T12:26:01;25.38;;;14.50;;
42364;SDS011;28498;54.400;18.566;2024-02-26T12:28:33;26.70;;;14.68;;
42364;SDS011;28498;54.400;18.566;2024-02-26T12:31:00;28.48;;;14.95;;
42364;SDS011;28498;54.400;18.566;2024-02-26T12:33:27;26.83;;;14.77;;
42364;SDS011;28498;54.400;18.566;2024-02-26T12:35:56;23.83;;;13.50;;
42364;SDS011;28498;54.400;18.566;2024-02-26T12:38:23;23.95;;;13.98;;
42364;SDS011;28498;54.400;18.566;2024-02-26T12:40:50;24.27;;;13.98;;
42364;SDS011;28498;54.400;18.566;2024-02-26T12:43:17;21.67;;;13.00;;
42364;SDS011;28498;54.400;18.566;2024-02-26T12:45:45;28.30;;;14.73;;
42364;SDS011;28498;54.400;18.566;2024-02-26T12:48:14;25.90;;;14.38;;
42364;SDS011;28498;54.400;18.566;2024-02-26T12:50:44;25.77;;;14.77;;
42364;SDS011;28498;54.400;18.566;2024-02-26T12:53:14;22.83;;;14.05;;
42364;SDS011;28498;54.400;18.566;2024-02-26T12:55:41;25.52;;;14.23;;
42364;SDS011;28498;54.400;18.566;2024-02-26T12:58:09;32.95;;;14.65;;
42364;SDS011;28498;54.400;18.566;2024-02-26T13:00:37;26.42;;;14.75;;
42364;SDS011;28498;54.400;18.566;2024-02-26T13:03:04;27.85;;;14.38;;
42364;SDS011;28498;54.400;18.566;2024-02-26T13:05:32;23.83;;;12.63;;
42364;SDS011;28498;54.400;18.566;2024-02-26T13:08:00;23.40;;;13.23;;
42364;SDS011;28498;54.400;18.566;2024-02-26T13:10:32;26.38;;;14.27;;
42364;SDS011;28498;54.400;18.566;2024-02-26T13:13:01;27.50;;;14.73;;
42364;SDS011;28498;54.400;18.566;2024-02-26T13:15:29;27.02;;;14.75;;
42364;SDS011;28498;54.400;18.566;2024-02-26T13:17:56;24.77;;;13.82;;
42364;SDS011;28498;54.400;18.566;2024-02-26T13:20:28;25.20;;;14.30;;
42364;SDS011;28498;54.400;18.566;2024-02-26T13:23:03;24.42;;;14.38;;
42364;SDS011;28498;54.400;18.566;2024-02-26T13:25:32;25.45;;;14.73;;
42364;SDS011;28498;54.400;18.566;2024-02-26T13:28:08;26.30;;;15.48;;
42364;SDS011;28498;54.400;18.566;2024-02-26T13:30:40;25.13;;;14.18;;
42364;SDS011;28498;54.400;18.566;2024-02-26T13:33:08;29.30;;;14.23;;
42364;SDS011;28498;54.400;18.566;2024-02-26T13:35:37;27.42;;;15.13;;
42364;SDS011;28498;54.400;18.566;2024-02-26T13:38:08;33.22;;;16.85;;
42364;SDS011;28498;54.400;18.566;2024-02-26T13:40:37;33.38;;;16.80;;
42364;SDS011;28498;54.400;18.566;2024-02-26T13:43:05;58.42;;;27.02;;
42364;SDS011;28498;54.400;18.566;2024-02-26T13:45:33;34.30;;;17.65;;
42364;SDS011;28498;54.400;18.566;2024-02-26T13:48:02;34.95;;;18.80;;
42364;SDS011;28498;54.400;18.566;2024-02-26T13:50:31;33.20;;;18.02;;
42364;SDS011;28498;54.400;18.566;2024-02-26T13:52:58;31.77;;;16.73;;
42364;SDS011;28498;54.400;18.566;2024-02-26T13:55:26;29.20;;;15.75;;
42364;SDS011;28498;54.400;18.566;2024-02-26T13:57:54;26.85;;;15.10;;
42364;SDS011;28498;54.400;18.566;2024-02-26T14:00:23;28.08;;;16.75;;
42364;SDS011;28498;54.400;18.566;2024-02-26T14:02:57;31.17;;;16.17;;
42364;SDS011;28498;54.400;18.566;2024-02-26T14:05:25;29.27;;;16.42;;
42364;SDS011;28498;54.400;18.566;2024-02-26T14:07:52;34.17;;;16.20;;
42364;SDS011;28498;54.400;18.566;2024-02-26T14:10:21;27.10;;;16.23;;
42364;SDS011;28498;54.400;18.566;2024-02-26T14:12:48;30.33;;;17.05;;
42364;SDS011;28498;54.400;18.566;2024-02-26T14:15:15;36.22;;;19.20;;
42364;SDS011;28498;54.400;18.566;2024-02-26T14:17:43;30.33;;;17.48;;
42364;SDS011;28498;54.400;18.566;2024-02-26T14:20:10;31.55;;;17.23;;
42364;SDS011;28498;54.400;18.566;2024-02-26T14:22:37;30.77;;;17.23;;
42364;SDS011;28498;54.400;18.566;2024-02-26T14:25:04;29.98;;;16.65;;
42364;SDS011;28498;54.400;18.566;2024-02-26T14:27:31;29.05;;;16.15;;
42364;SDS011;28498;54.400;18.566;2024-02-26T14:29:59;26.27;;;14.55;;
42364;SDS011;28498;54.400;18.566;2024-02-26T14:32:26;31.20;;;16.08;;
42364;SDS011;28498;54.400;18.566;2024-02-26T14:34:56;29.75;;;17.10;;
42364;SDS011;28498;54.400;18.566;2024-02-26T14:37:23;29.98;;;16.45;;